sensor_id;sensor_type;location;lat;lon;timestamp;pressure;altitude;pressure_sealevel;temperature;humidity
78845;BME280;68195;50.854;2.860;2023-12-28T00:01:22;100892.28;;;10.21;100.00
78845;BME280;68195;50.854;2.860;2023-12-28T00:03:48;100877.50;;;10.02;100.00
78845;BME280;68195;50.854;2.860;2023-12-28T00:06:16;100896.16;;;10.12;100.00
78845;BME280;68195;50.854;2.860;2023-12-28T00:08:42;100903.44;;;10.24;100.00
78845;BME280;68195;50.854;2.860;2023-12-28T00:11:07;100866.97;;;10.04;100.00
78845;BME280;68195;50.854;2.860;2023-12-28T00:13:33;100889.91;;;10.16;100.00
78845;BME280;68195;50.854;2.860;2023-12-28T00:15:58;100893.00;;;10.24;100.00
78845;BME280;68195;50.854;2.860;2023-12-28T00:18:24;100889.69;;;10.21;100.00
78845;BME280;68195;50.854;2.860;2023-12-28T00:20:54;100871.56;;;10.18;100.00
78845;BME280;68195;50.854;2.860;2023-12-28T00:23:19;100879.97;;;10.24;100.00
78845;BME280;68195;50.854;2.860;2023-12-28T00:25:47;100857.03;;;10.12;100.00
78845;BME280;68195;50.854;2.860;2023-12-28T00:28:13;100889.75;;;10.19;100.00
78845;BME280;68195;50.854;2.860;2023-12-28T00:30:41;100875.22;;;10.14;100.00
78845;BME280;68195;50.854;2.860;2023-12-28T00:33:09;100841.19;;;9.98;100.00
78845;BME280;68195;50.854;2.860;2023-12-28T00:35:37;100871.63;;;10.16;100.00
78845;BME280;68195;50.854;2.860;2023-12-28T00:38:02;100854.06;;;10.01;100.00
78845;BME280;68195;50.854;2.860;2023-12-28T00:40:29;100893.78;;;10.26;100.00
78845;BME280;68195;50.854;2.860;2023-12-28T00:42:54;100896.50;;;10.23;100.00
78845;BME280;68195;50.854;2.860;2023-12-28T00:45:19;100859.78;;;10.09;100.00
78845;BME280;68195;50.854;2.860;2023-12-28T00:47:45;100866.47;;;10.15;100.00
78845;BME280;68195;50.854;2.860;2023-12-28T00:50:10;100894.84;;;10.22;100.00
78845;BME280;68195;50.854;2.860;2023-12-28T00:52:40;100861.75;;;10.04;100.00
78845;BME280;68195;50.854;2.860;2023-12-28T00:55:06;100904.22;;;10.26;100.00
78845;BME280;68195;50.854;2.860;2023-12-28T00:57:35;100884.16;;;10.08;100.00
78845;BME280;68195;50.854;2.860;2023-12-28T01:00:00;100896.09;;;10.14;100.00
78845;BME280;68195;50.854;2.860;2023-12-28T01:02:27;100885.09;;;10.07;100.00
78845;BME280;68195;50.854;2.860;2023-12-28T01:04:52;100864.44;;;10.02;100.00
78845;BME280;68195;50.854;2.860;2023-12-28T01:07:18;100883.00;;;10.15;100.00
78845;BME280;68195;50.854;2.860;2023-12-28T01:09:43;100880.66;;;10.09;100.00
78845;BME280;68195;50.854;2.860;2023-12-28T01:12:11;100862.09;;;9.96;100.00
78845;BME280;68195;50.854;2.860;2023-12-28T01:14:39;100849.19;;;9.93;100.00
78845;BME280;68195;50.854;2.860;2023-12-28T01:17:04;100859.56;;;9.95;100.00
78845;BME280;68195;50.854;2.860;2023-12-28T01:19:29;100885.94;;;10.07;100.00
78845;BME280;68195;50.854;2.860;2023-12-28T01:21:57;100880.88;;;10.04;100.00
78845;BME280;68195;50.854;2.860;2023-12-28T01:24:23;100884.13;;;10.10;100.00
78845;BME280;68195;50.854;2.860;2023-12-28T01:26:51;100861.38;;;9.93;100.00
78845;BME280;68195;50.854;2.860;2023-12-28T01:29:17;100845.22;;;9.84;100.00
78845;BME280;68195;50.854;2.860;2023-12-28T01:31:45;100884.13;;;10.10;100.00
78845;BME280;68195;50.854;2.860;2023-12-28T01:34:13;100864.28;;;9.86;100.00
78845;BME280;68195;50.854;2.860;2023-12-28T01:36:41;100913.44;;;10.15;100.00
78845;BME280;68195;50.854;2.860;2023-12-28T01:39:09;100890.31;;;10.07;100.00
78845;BME280;68195;50.854;2.860;2023-12-28T01:41:39;100890.44;;;10.04;100.00
78845;BME280;68195;50.854;2.860;2023-12-28T01:44:07;100893.84;;;10.06;100.00
78845;BME280;68195;50.854;2.860;2023-12-28T01:46:33;100870.72;;;9.98;100.00
78845;BME280;68195;50.854;2.860;2023-12-28T01:49:01;100897.72;;;10.16;100.00
78845;BME280;68195;50.854;2.860;2023-12-28T01:51:27;100884.25;;;10.06;100.00
78845;BME280;68195;50.854;2.860;2023-12-28T01:53:53;100882.81;;;9.99;100.00
78845;BME280;68195;50.854;2.860;2023-12-28T01:56:19;100888.75;;;10.03;100.00
78845;BME280;68195;50.854;2.860;2023-12-28T01:58:49;100902.31;;;10.11;100.00
78845;BME280;68195;50.854;2.860;2023-12-28T02:01:15;100882.00;;;9.99;100.00
78845;BME280;68195;50.854;2.860;2023-12-28T02:03:42;100883.97;;;9.94;100.00
78845;BME280;68195;50.854;2.860;2023-12-28T02:06:10;100902.59;;;10.05;100.00
78845;BME280;68195;50.854;2.860;2023-12-28T02:08:35;100892.56;;;9.96;100.00
78845;BME280;68195;50.854;2.860;2023-12-28T02:11:01;100908.03;;;10.00;100.00
78845;BME280;68195;50.854;2.860;2023-12-28T02:13:29;100878.03;;;9.90;100.00
78845;BME280;68195;50.854;2.860;2023-12-28T02:16:06;100897.50;;;10.02;100.00
78845;BME280;68195;50.854;2.860;2023-12-28T02:18:43;100910.34;;;10.06;100.00
78845;BME280;68195;50.854;2.860;2023-12-28T02:21:12;100862.03;;;9.79;100.00
78845;BME280;68195;50.854;2.860;2023-12-28T02:23:47;100902.09;;;9.97;100.00
78845;BME280;68195;50.854;2.860;2023-12-28T02:26:14;100872.66;;;9.74;100.00
78845;BME280;68195;50.854;2.860;2023-12-28T02:28:39;100918.25;;;10.05;100.00
78845;BME280;68195;50.854;2.860;2023-12-28T02:31:06;100885.81;;;9.92;100.00
78845;BME280;68195;50.854;2.860;2023-12-28T02:33:40;100907.09;;;10.01;100.00
78845;BME280;68195;50.854;2.860;2023-12-28T02:36:10;100903.78;;;9.98;100.00
78845;BME280;68195;50.854;2.860;2023-12-28T02:38:37;100912.19;;;10.04;100.00
78845;BME280;68195;50.854;2.860;2023-12-28T02:41:04;100897.50;;;10.02;100.00
78845;BME280;68195;50.854;2.860;2023-12-28T02:43:30;100863.69;;;9.80;100.00
78845;BME280;68195;50.854;2.860;2023-12-28T02:45:55;100901.03;;;10.01;100.00
78845;BME280;68195;50.854;2.860;2023-12-28T02:48:23;100896.03;;;9.96;100.00
78845;BME280;68195;50.854;2.860;2023-12-28T02:50:48;100908.84;;;10.01;100.00
78845;BME280;68195;50.854;2.860;2023-12-28T02:53:14;100870.69;;;9.79;100.00
78845;BME280;68195;50.854;2.860;2023-12-28T02:55:42;100871.78;;;9.74;100.00
78845;BME280;68195;50.854;2.860;2023-12-28T02:58:07;100889.66;;;9.83;100.00
78845;BME280;68195;50.854;2.860;2023-12-28T03:00:32;100894.94;;;9.81;100.00
78845;BME280;68195;50.854;2.860;2023-12-28T03:02:58;100917.09;;;9.92;100.00
78845;BME280;68195;50.854;2.860;2023-12-28T03:05:23;100914.50;;;9.92;100.00
78845;BME280;68195;50.854;2.860;2023-12-28T03:07:51;100883.41;;;9.67;100.00
78845;BME280;68195;50.854;2.860;2023-12-28T03:10:16;100925.00;;;9.90;100.00
78845;BME280;68195;50.854;2.860;2023-12-28T03:12:44;100906.09;;;9.85;100.00
78845;BME280;68195;50.854;2.860;2023-12-28T03:15:09;100906.66;;;9.92;100.00
78845;BME280;68195;50.854;2.860;2023-12-28T03:17:35;100882.38;;;9.71;100.00
78845;BME280;68195;50.854;2.860;2023-12-28T03:20:02;100928.31;;;9.94;100.00
78845;BME280;68195;50.854;2.860;2023-12-28T03:22:28;100909.41;;;9.89;100.00
78845;BME280;68195;50.854;2.860;2023-12-28T03:24:55;100874.34;;;9.75;100.00
78845;BME280;68195;50.854;2.860;2023-12-28T03:27:21;100901.72;;;9.85;100.00
78845;BME280;68195;50.854;2.860;2023-12-28T03:29:49;100879.28;;;9.81;100.00
78845;BME280;68195;50.854;2.860;2023-12-28T03:32:16;100881.84;;;9.83;100.00
78845;BME280;68195;50.854;2.860;2023-12-28T03:34:41;100876.13;;;9.75;100.00
78845;BME280;68195;50.854;2.860;2023-12-28T03:37:07;100877.59;;;9.80;100.00
78845;BME280;68195;50.854;2.860;2023-12-28T03:39:37;100867.31;;;9.77;100.00
78845;BME280;68195;50.854;2.860;2023-12-28T03:42:03;100909.75;;;10.00;100.00
78845;BME280;68195;50.854;2.860;2023-12-28T03:44:30;100907.72;;;9.88;100.00
78845;BME280;68195;50.854;2.860;2023-12-28T03:46:58;100877.88;;;9.74;100.00
78845;BME280;68195;50.854;2.860;2023-12-28T03:49:23;100903.97;;;9.93;100.00
78845;BME280;68195;50.854;2.860;2023-12-28T03:51:51;100918.66;;;9.96;100.00
78845;BME280;68195;50.854;2.860;2023-12-28T03:54:19;100900.00;;;9.84;100.00
78845;BME280;68195;50.854;2.860;2023-12-28T03:56:52;100902.63;;;9.84;100.00
78845;BME280;68195;50.854;2.860;2023-12-28T03:59:19;100910.53;;;9.83;100.00
78845;BME280;68195;50.854;2.860;2023-12-28T04:01:44;100894.63;;;9.69;100.00
78845;BME280;68195;50.854;2.860;2023-12-28T04:04:12;100903.38;;;9.68;100.00
78845;BME280;68195;50.854;2.860;2023-12-28T04:06:38;100933.84;;;9.86;100.00
78845;BME280;68195;50.854;2.860;2023-12-28T04:09:03;100941.22;;;9.97;100.00
78845;BME280;68195;50.854;2.860;2023-12-28T04:11:31;100930.47;;;9.84;100.00
78845;BME280;68195;50.854;2.860;2023-12-28T04:13:57;100910.66;;;9.80;100.00
78845;BME280;68195;50.854;2.860;2023-12-28T04:16:24;100927.66;;;9.89;100.00
78845;BME280;68195;50.854;2.860;2023-12-28T04:18:50;100921.03;;;9.81;100.00
78845;BME280;68195;50.854;2.860;2023-12-28T04:21:15;100922.84;;;9.79;100.00
78845;BME280;68195;50.854;2.860;2023-12-28T04:23:41;100926.97;;;9.85;100.00
78845;BME280;68195;50.854;2.860;2023-12-28T04:26:10;100938.88;;;9.91;100.00
78845;BME280;68195;50.854;2.860;2023-12-28T04:28:37;100948.19;;;9.96;100.00
78845;BME280;68195;50.854;2.860;2023-12-28T04:31:08;100918.34;;;9.83;100.00
78845;BME280;68195;50.854;2.860;2023-12-28T04:33:34;100898.59;;;9.77;100.00
78845;BME280;68195;50.854;2.860;2023-12-28T04:36:03;100930.16;;;9.92;100.00
78845;BME280;68195;50.854;2.860;2023-12-28T04:38:29;100931.78;;;9.94;100.00
78845;BME280;68195;50.854;2.860;2023-12-28T04:40:58;100925.25;;;9.84;100.00
78845;BME280;68195;50.854;2.860;2023-12-28T04:43:23;100930.84;;;9.95;100.00
78845;BME280;68195;50.854;2.860;2023-12-28T04:45:50;100907.72;;;9.67;100.00
78845;BME280;68195;50.854;2.860;2023-12-28T04:48:15;100923.00;;;9.76;100.00
78845;BME280;68195;50.854;2.860;2023-12-28T04:50:41;100936.63;;;9.83;100.00
78845;BME280;68195;50.854;2.860;2023-12-28T04:53:06;100903.38;;;9.68;100.00
78845;BME280;68195;50.854;2.860;2023-12-28T04:55:31;100897.44;;;9.64;100.00
78845;BME280;68195;50.854;2.860;2023-12-28T04:57:59;100913.53;;;9.74;100.00
78845;BME280;68195;50.854;2.860;2023-12-28T05:00:27;100900.00;;;9.65;100.00
78845;BME280;68195;50.854;2.860;2023-12-28T05:02:52;100894.13;;;9.60;100.00
78845;BME280;68195;50.854;2.860;2023-12-28T05:05:18;100911.25;;;9.66;100.00
78845;BME280;68195;50.854;2.860;2023-12-28T05:07:43;100897.72;;;9.58;100.00
78845;BME280;68195;50.854;2.860;2023-12-28T05:10:11;100948.66;;;9.85;100.00
78845;BME280;68195;50.854;2.860;2023-12-28T05:12:39;100905.22;;;9.65;100.00
78845;BME280;68195;50.854;2.860;2023-12-28T05:15:07;100937.31;;;9.86;100.00
78845;BME280;68195;50.854;2.860;2023-12-28T05:17:32;100903.50;;;9.64;100.00
78845;BME280;68195;50.854;2.860;2023-12-28T05:19:57;100916.22;;;9.72;100.00
78845;BME280;68195;50.854;2.860;2023-12-28T05:22:25;100923.00;;;9.76;100.00
78845;BME280;68195;50.854;2.860;2023-12-28T05:24:53;100914.91;;;9.62;100.00
78845;BME280;68195;50.854;2.860;2023-12-28T05:27:18;100938.91;;;9.70;100.00
78845;BME280;68195;50.854;2.860;2023-12-28T05:29:44;100930.22;;;9.70;100.00
78845;BME280;68195;50.854;2.860;2023-12-28T05:32:09;100920.78;;;9.67;100.00
78845;BME280;68195;50.854;2.860;2023-12-28T05:34:35;100936.94;;;9.75;100.00
78845;BME280;68195;50.854;2.860;2023-12-28T05:37:03;100926.06;;;9.65;100.00
78845;BME280;68195;50.854;2.860;2023-12-28T05:39:31;100937.78;;;9.76;100.00
78845;BME280;68195;50.854;2.860;2023-12-28T05:41:59;100915.75;;;9.62;100.00
78845;BME280;68195;50.854;2.860;2023-12-28T05:44:24;100906.47;;;9.57;100.00
78845;BME280;68195;50.854;2.860;2023-12-28T05:46:49;100901.25;;;9.57;100.00
78845;BME280;68195;50.854;2.860;2023-12-28T05:49:15;100901.25;;;9.57;100.00
78845;BME280;68195;50.854;2.860;2023-12-28T05:51:43;100902.28;;;9.53;100.00
78845;BME280;68195;50.854;2.860;2023-12-28T05:54:08;100907.69;;;9.48;100.00
78845;BME280;68195;50.854;2.860;2023-12-28T05:56:34;100928.00;;;9.60;100.00
78845;BME280;68195;50.854;2.860;2023-12-28T05:58:59;100933.16;;;9.62;100.00
78845;BME280;68195;50.854;2.860;2023-12-28T06:01:25;100947.63;;;9.69;100.00
78845;BME280;68195;50.854;2.860;2023-12-28T06:03:50;100924.19;;;9.49;100.00
78845;BME280;68195;50.854;2.860;2023-12-28T06:06:18;100966.81;;;9.68;100.00
78845;BME280;68195;50.854;2.860;2023-12-28T06:08:43;100931.22;;;9.47;100.00
78845;BME280;68195;50.854;2.860;2023-12-28T06:11:11;100939.72;;;9.50;100.00
78845;BME280;68195;50.854;2.860;2023-12-28T06:13:36;100956.00;;;9.57;100.00
78845;BME280;68195;50.854;2.860;2023-12-28T06:16:02;100961.66;;;9.67;100.00
78845;BME280;68195;50.854;2.860;2023-12-28T06:18:30;100927.69;;;9.48;100.00
78845;BME280;68195;50.854;2.860;2023-12-28T06:20:56;100935.19;;;9.55;100.00
78845;BME280;68195;50.854;2.860;2023-12-28T06:23:23;100943.91;;;9.54;100.00
78845;BME280;68195;50.854;2.860;2023-12-28T06:25:49;100948.75;;;9.63;100.00
78845;BME280;68195;50.854;2.860;2023-12-28T06:28:14;100939.63;;;9.53;100.00
78845;BME280;68195;50.854;2.860;2023-12-28T06:30:40;100949.84;;;9.58;100.00
78845;BME280;68195;50.854;2.860;2023-12-28T06:33:05;100977.63;;;9.79;100.00
78845;BME280;68195;50.854;2.860;2023-12-28T06:35:31;100923.25;;;9.50;100.00
78845;BME280;68195;50.854;2.860;2023-12-28T06:37:56;100936.19;;;9.53;100.00
78845;BME280;68195;50.854;2.860;2023-12-28T06:40:22;100974.69;;;9.67;100.00
78845;BME280;68195;50.854;2.860;2023-12-28T06:42:47;100965.34;;;9.61;100.00
78845;BME280;68195;50.854;2.860;2023-12-28T06:45:12;100946.84;;;9.47;100.00
78845;BME280;68195;50.854;2.860;2023-12-28T06:47:38;100968.75;;;9.63;100.00
78845;BME280;68195;50.854;2.860;2023-12-28T06:50:06;100967.06;;;9.62;100.00
78845;BME280;68195;50.854;2.860;2023-12-28T06:52:31;100979.00;;;9.68;100.00
78845;BME280;68195;50.854;2.860;2023-12-28T06:54:58;101003.75;;;9.78;100.00
78845;BME280;68195;50.854;2.860;2023-12-28T06:57:23;100978.47;;;9.59;100.00
78845;BME280;68195;50.854;2.860;2023-12-28T06:59:53;100969.03;;;9.57;100.00
78845;BME280;68195;50.854;2.860;2023-12-28T07:02:21;100984.81;;;9.74;100.00
78845;BME280;68195;50.854;2.860;2023-12-28T07:04:49;100991.91;;;9.71;100.00
78845;BME280;68195;50.854;2.860;2023-12-28T07:07:14;100972.28;;;9.62;100.00
78845;BME280;68195;50.854;2.860;2023-12-28T07:09:39;100961.84;;;9.62;100.00
78845;BME280;68195;50.854;2.860;2023-12-28T07:12:07;100996.03;;;9.76;100.00
78845;BME280;68195;50.854;2.860;2023-12-28T07:14:35;100961.31;;;9.54;100.00
78845;BME280;68195;50.854;2.860;2023-12-28T07:17:01;100980.22;;;9.59;100.00
78845;BME280;68195;50.854;2.860;2023-12-28T07:19:26;100991.97;;;9.69;100.00
78845;BME280;68195;50.854;2.860;2023-12-28T07:21:52;100987.78;;;9.65;100.00
78845;BME280;68195;50.854;2.860;2023-12-28T07:24:20;100999.78;;;9.69;100.00
78845;BME280;68195;50.854;2.860;2023-12-28T07:26:47;101011.06;;;9.70;100.00
78845;BME280;68195;50.854;2.860;2023-12-28T07:29:13;100991.19;;;9.67;100.00
78845;BME280;68195;50.854;2.860;2023-12-28T07:31:38;101020.44;;;9.74;100.00
78845;BME280;68195;50.854;2.860;2023-12-28T07:34:03;101011.78;;;9.73;100.00
78845;BME280;68195;50.854;2.860;2023-12-28T07:36:29;101015.31;;;9.72;100.00
78845;BME280;68195;50.854;2.860;2023-12-28T07:38:55;101006.63;;;9.72;100.00
78845;BME280;68195;50.854;2.860;2023-12-28T07:41:20;101006.19;;;9.62;100.00
78845;BME280;68195;50.854;2.860;2023-12-28T07:43:45;100990.72;;;9.57;100.00
78845;BME280;68195;50.854;2.860;2023-12-28T07:46:13;100988.31;;;9.53;100.00
78845;BME280;68195;50.854;2.860;2023-12-28T07:48:39;101013.03;;;9.64;100.00
78845;BME280;68195;50.854;2.860;2023-12-28T07:51:05;101003.97;;;9.53;100.00
78845;BME280;68195;50.854;2.860;2023-12-28T07:53:31;101027.56;;;9.70;100.00
78845;BME280;68195;50.854;2.860;2023-12-28T07:56:01;101055.47;;;9.68;100.00
78845;BME280;68195;50.854;2.860;2023-12-28T07:58:27;101059.84;;;9.68;100.00
78845;BME280;68195;50.854;2.860;2023-12-28T08:00:52;101060.69;;;9.68;100.00
78845;BME280;68195;50.854;2.860;2023-12-28T08:03:17;101054.31;;;9.75;100.00
78845;BME280;68195;50.854;2.860;2023-12-28T08:05:43;101067.22;;;9.78;100.00
78845;BME280;68195;50.854;2.860;2023-12-28T08:08:08;101055.88;;;9.79;100.00
78845;BME280;68195;50.854;2.860;2023-12-28T08:10:34;101057.69;;;9.77;100.00
78845;BME280;68195;50.854;2.860;2023-12-28T08:12:59;101060.31;;;9.77;100.00
78845;BME280;68195;50.854;2.860;2023-12-28T08:15:24;101060.81;;;9.65;100.00
78845;BME280;68195;50.854;2.860;2023-12-28T08:17:50;101051.84;;;9.72;100.00
78845;BME280;68195;50.854;2.860;2023-12-28T08:20:15;101074.78;;;9.84;100.00
78845;BME280;68195;50.854;2.860;2023-12-28T08:22:40;101050.00;;;9.74;100.00
78845;BME280;68195;50.854;2.860;2023-12-28T08:25:08;101059.31;;;9.80;100.00
78845;BME280;68195;50.854;2.860;2023-12-28T08:27:36;101045.69;;;9.73;100.00
78845;BME280;68195;50.854;2.860;2023-12-28T08:30:01;101049.63;;;9.83;100.00
78845;BME280;68195;50.854;2.860;2023-12-28T08:32:27;101046.47;;;9.75;100.00
78845;BME280;68195;50.854;2.860;2023-12-28T08:34:55;101027.00;;;9.63;100.00
78845;BME280;68195;50.854;2.860;2023-12-28T08:37:20;101033.44;;;9.75;100.00
78845;BME280;68195;50.854;2.860;2023-12-28T08:39:46;101035.94;;;9.78;100.00
78845;BME280;68195;50.854;2.860;2023-12-28T08:42:11;101029.31;;;9.70;100.00
78845;BME280;68195;50.854;2.860;2023-12-28T08:44:38;101030.09;;;9.72;100.00
78845;BME280;68195;50.854;2.860;2023-12-28T08:47:03;101007.47;;;9.52;100.00
78845;BME280;68195;50.854;2.860;2023-12-28T08:49:29;101040.53;;;9.72;100.00
78845;BME280;68195;50.854;2.860;2023-12-28T08:51:57;101046.09;;;9.84;100.00
78845;BME280;68195;50.854;2.860;2023-12-28T08:54:22;101066.94;;;9.84;100.00
78845;BME280;68195;50.854;2.860;2023-12-28T08:56:47;101017.34;;;9.65;100.00
78845;BME280;68195;50.854;2.860;2023-12-28T08:59:13;101041.84;;;9.82;100.00
78845;BME280;68195;50.854;2.860;2023-12-28T09:01:39;101030.03;;;9.73;100.00
78845;BME280;68195;50.854;2.860;2023-12-28T09:04:04;101023.25;;;9.69;100.00
78845;BME280;68195;50.854;2.860;2023-12-28T09:06:30;101039.28;;;9.80;100.00
78845;BME280;68195;50.854;2.860;2023-12-28T09:08:55;101047.84;;;9.84;100.00
78845;BME280;68195;50.854;2.860;2023-12-28T09:11:21;101023.16;;;9.72;100.00
78845;BME280;68195;50.854;2.860;2023-12-28T09:13:47;101029.84;;;9.78;100.00
78845;BME280;68195;50.854;2.860;2023-12-28T09:16:14;101037.47;;;9.82;100.00
78845;BME280;68195;50.854;2.860;2023-12-28T09:18:40;101071.34;;;10.04;100.00
78845;BME280;68195;50.854;2.860;2023-12-28T09:21:05;101067.75;;;10.07;100.00
78845;BME280;68195;50.854;2.860;2023-12-28T09:23:35;101070.69;;;9.99;100.00
78845;BME280;68195;50.854;2.860;2023-12-28T09:26:06;101082.09;;;9.97;100.00
78845;BME280;68195;50.854;2.860;2023-12-28T09:28:33;101075.47;;;9.90;100.00
78845;BME280;68195;50.854;2.860;2023-12-28T09:30:59;101066.84;;;9.88;100.00
78845;BME280;68195;50.854;2.860;2023-12-28T09:33:27;101090.56;;;10.02;100.00
78845;BME280;68195;50.854;2.860;2023-12-28T09:35:53;101092.34;;;10.01;100.00
78845;BME280;68195;50.854;2.860;2023-12-28T09:38:21;101070.69;;;9.79;100.00
78845;BME280;68195;50.854;2.860;2023-12-28T09:40:47;101114.00;;;10.03;100.00
78845;BME280;68195;50.854;2.860;2023-12-28T09:43:23;101096.78;;;9.99;100.00
78845;BME280;68195;50.854;2.860;2023-12-28T09:45:52;101109.63;;;10.04;100.00
78845;BME280;68195;50.854;2.860;2023-12-28T09:48:20;101096.91;;;9.96;100.00
78845;BME280;68195;50.854;2.860;2023-12-28T09:50:49;101102.72;;;10.03;100.00
78845;BME280;68195;50.854;2.860;2023-12-28T09:53:22;101116.56;;;10.05;100.00
78845;BME280;68195;50.854;2.860;2023-12-28T09:55:48;101084.56;;;9.79;100.00
78845;BME280;68195;50.854;2.860;2023-12-28T09:58:14;101127.84;;;10.05;100.00
78845;BME280;68195;50.854;2.860;2023-12-28T10:00:47;101105.53;;;9.98;100.00
78845;BME280;68195;50.854;2.860;2023-12-28T10:03:13;101124.34;;;10.06;100.00
78845;BME280;68195;50.854;2.860;2023-12-28T10:05:42;101126.84;;;10.08;100.00
78845;BME280;68195;50.854;2.860;2023-12-28T10:08:08;101130.41;;;10.07;100.00
78845;BME280;68195;50.854;2.860;2023-12-28T10:10:36;101123.34;;;10.09;100.00
78845;BME280;68195;50.854;2.860;2023-12-28T10:13:01;101106.63;;;9.93;100.00
78845;BME280;68195;50.854;2.860;2023-12-28T10:15:27;101131.88;;;10.13;100.00
78845;BME280;68195;50.854;2.860;2023-12-28T10:17:55;101123.47;;;10.06;100.00
78845;BME280;68195;50.854;2.860;2023-12-28T10:20:20;101104.56;;;10.01;100.00
78845;BME280;68195;50.854;2.860;2023-12-28T10:22:49;101118.97;;;10.10;100.00
78845;BME280;68195;50.854;2.860;2023-12-28T10:25:14;101089.09;;;9.96;100.00
78845;BME280;68195;50.854;2.860;2023-12-28T10:27:40;101122.13;;;10.18;100.00
78845;BME280;68195;50.854;2.860;2023-12-28T10:30:08;101099.78;;;10.11;100.00
78845;BME280;68195;50.854;2.860;2023-12-28T10:32:34;101069.19;;;9.94;100.00
78845;BME280;68195;50.854;2.860;2023-12-28T10:34:59;101098.63;;;10.18;100.00
78845;BME280;68195;50.854;2.860;2023-12-28T10:37:26;101075.91;;;9.99;100.00
78845;BME280;68195;50.854;2.860;2023-12-28T10:39:54;101117.34;;;10.27;100.00
78845;BME280;68195;50.854;2.860;2023-12-28T10:42:31;101087.41;;;10.16;100.00
78845;BME280;68195;50.854;2.860;2023-12-28T10:45:06;101076.50;;;10.06;100.00
78845;BME280;68195;50.854;2.860;2023-12-28T10:47:42;101101.50;;;10.32;100.00
78845;BME280;68195;50.854;2.860;2023-12-28T10:50:09;101071.59;;;10.19;100.00
78845;BME280;68195;50.854;2.860;2023-12-28T10:52:36;101080.22;;;10.21;100.00
78845;BME280;68195;50.854;2.860;2023-12-28T11:00:30;101085.00;;;10.32;100.00
78845;BME280;68195;50.854;2.860;2023-12-28T11:03:02;101080.56;;;10.34;100.00
78845;BME280;68195;50.854;2.860;2023-12-28T11:05:28;101076.19;;;10.34;100.00
78845;BME280;68195;50.854;2.860;2023-12-28T11:07:55;101053.78;;;10.29;100.00
78845;BME280;68195;50.854;2.860;2023-12-28T11:10:24;101090.34;;;10.49;100.00
78845;BME280;68195;50.854;2.860;2023-12-28T11:12:53;101047.28;;;10.18;100.00
78845;BME280;68195;50.854;2.860;2023-12-28T11:15:19;101043.03;;;10.16;100.00
78845;BME280;68195;50.854;2.860;2023-12-28T11:17:46;101053.47;;;10.36;100.00
78845;BME280;68195;50.854;2.860;2023-12-28T11:20:11;101068.19;;;10.39;100.00
78845;BME280;68195;50.854;2.860;2023-12-28T11:22:41;101056.03;;;10.38;100.00
78845;BME280;68195;50.854;2.860;2023-12-28T11:25:14;101051.00;;;10.33;100.00
78845;BME280;68195;50.854;2.860;2023-12-28T11:27:40;101058.38;;;10.44;100.00
78845;BME280;68195;50.854;2.860;2023-12-28T11:30:06;101069.22;;;10.54;100.00
78845;BME280;68195;50.854;2.860;2023-12-28T11:32:34;101037.03;;;10.34;100.00
78845;BME280;68195;50.854;2.860;2023-12-28T11:35:00;101069.06;;;10.58;100.00
78845;BME280;68195;50.854;2.860;2023-12-28T11:37:29;101040.88;;;10.46;100.00
78845;BME280;68195;50.854;2.860;2023-12-28T11:40:12;101053.66;;;10.52;100.00
78845;BME280;68195;50.854;2.860;2023-12-28T11:42:48;101059.66;;;10.54;100.00
78845;BME280;68195;50.854;2.860;2023-12-28T11:45:16;101043.59;;;10.43;100.00
78845;BME280;68195;50.854;2.860;2023-12-28T11:47:42;101035.66;;;10.46;100.00
78845;BME280;68195;50.854;2.860;2023-12-28T11:50:08;101058.47;;;10.61;100.00
78845;BME280;68195;50.854;2.860;2023-12-28T11:52:33;101062.75;;;10.62;100.00
78845;BME280;68195;50.854;2.860;2023-12-28T11:55:02;101026.09;;;10.45;100.00
78845;BME280;68195;50.854;2.860;2023-12-28T11:57:27;101045.41;;;10.61;100.00
78845;BME280;68195;50.854;2.860;2023-12-28T11:59:55;101021.66;;;10.47;100.00
78845;BME280;68195;50.854;2.860;2023-12-28T12:02:24;101031.41;;;10.62;100.00
78845;BME280;68195;50.854;2.860;2023-12-28T12:04:49;100990.41;;;10.45;100.00
78845;BME280;68195;50.854;2.860;2023-12-28T12:07:17;101047.94;;;10.63;100.00
78845;BME280;68195;50.854;2.860;2023-12-28T12:09:43;101016.22;;;10.52;100.00
78845;BME280;68195;50.854;2.860;2023-12-28T12:12:09;101015.13;;;10.57;100.00
78845;BME280;68195;50.854;2.860;2023-12-28T12:14:37;101012.78;;;10.51;100.00
78845;BME280;68195;50.854;2.860;2023-12-28T12:17:03;101033.75;;;10.68;100.00
78845;BME280;68195;50.854;2.860;2023-12-28T12:19:28;101032.63;;;10.74;100.00
78845;BME280;68195;50.854;2.860;2023-12-28T12:21:56;101029.09;;;10.75;100.00
78845;BME280;68195;50.854;2.860;2023-12-28T12:24:22;100994.38;;;10.54;100.00
78845;BME280;68195;50.854;2.860;2023-12-28T12:26:52;101015.56;;;10.67;100.00
78845;BME280;68195;50.854;2.860;2023-12-28T12:29:17;101013.13;;;10.62;100.00
78845;BME280;68195;50.854;2.860;2023-12-28T12:31:44;101025.63;;;10.75;100.00
78845;BME280;68195;50.854;2.860;2023-12-28T12:34:12;101034.19;;;10.78;100.00
78845;BME280;68195;50.854;2.860;2023-12-28T12:36:40;100993.09;;;10.63;100.00
78845;BME280;68195;50.854;2.860;2023-12-28T12:39:06;101002.41;;;10.68;100.00
78845;BME280;68195;50.854;2.860;2023-12-28T12:41:34;100993.78;;;10.66;100.00
78845;BME280;68195;50.854;2.860;2023-12-28T12:44:00;101030.59;;;10.81;100.00
78845;BME280;68195;50.854;2.860;2023-12-28T12:46:26;101008.28;;;10.74;100.00
78845;BME280;68195;50.854;2.860;2023-12-28T12:48:58;100986.94;;;10.64;100.00